Time;durP1;ratioP1;P1;durP2;ratioP2;P2;SDS_P1;SDS_P2;PMS_P1;PMS_P2;Temp;Humidity;BMP_temperature;BMP_pressure;BME280_temperature;BME280_humidity;BME280_pressure;Samples;Min_cycle;Max_cycle;Signal;HPM_P1;HPM_P2
2021/07/04 00:00:49;;;;;;;1.20;1.10;;;;;;;;;;5090592;28;20363;-55
2021/07/04 00:03:16;;;;;;;1.52;0.90;;;;;;;;;;5088963;28;20423;-55
2021/07/04 00:05:44;;;;;;;0.80;0.80;;;;;;;;;;5090016;28;20486;-55
2021/07/04 00:08:12;;;;;;;1.40;0.80;;;;;;;;;;5088488;28;20062;-56
2021/07/04 00:10:45;;;;;;;0.90;0.85;;;;;;;;;;5089478;28;20074;-55
2021/07/04 00:13:12;;;;;;;0.77;0.77;;;;;;;;;;5083279;28;20086;-54
2021/07/04 00:15:40;;;;;;;0.80;0.80;;;;;;;;;;5082417;28;20093;-55
2021/07/04 00:18:08;;;;;;;0.85;0.80;;;;;;;;;;5089164;28;20674;-55
2021/07/04 00:20:35;;;;;;;1.92;0.90;;;;;;;;;;5086624;28;20070;-55
2021/07/04 00:23:02;;;;;;;0.80;0.80;;;;;;;;;;5087768;28;20032;-55
2021/07/04 00:25:29;;;;;;;0.70;0.70;;;;;;;;;;5085938;28;20439;-56
2021/07/04 00:27:57;;;;;;;0.80;0.80;;;;;;;;;;5084218;28;20032;-54
2021/07/04 00:30:23;;;;;;;5.63;0.80;;;;;;;;;;5086327;28;21710;-55
2021/07/04 00:32:51;;;;;;;0.93;0.80;;;;;;;;;;5083799;28;20044;-54
2021/07/04 00:35:18;;;;;;;1.42;0.80;;;;;;;;;;5078875;28;20063;-55
2021/07/04 00:37:46;;;;;;;0.80;0.80;;;;;;;;;;5089981;28;20089;-55
2021/07/04 00:40:13;;;;;;;1.13;0.70;;;;;;;;;;5086948;28;20043;-55
2021/07/04 00:42:40;;;;;;;1.05;0.80;;;;;;;;;;5080908;28;20048;-54
2021/07/04 00:45:09;;;;;;;1.17;0.85;;;;;;;;;;5090193;28;20040;-55
2021/07/04 00:47:35;;;;;;;0.80;0.80;;;;;;;;;;5087567;28;20067;-55
2021/07/04 00:50:03;;;;;;;0.80;0.80;;;;;;;;;;5090817;28;20165;-55
2021/07/04 00:52:30;;;;;;;2.88;0.80;;;;;;;;;;5088432;28;20064;-55
2021/07/04 00:54:57;;;;;;;6.53;0.88;;;;;;;;;;5069756;28;20124;-55
2021/07/04 00:57:24;;;;;;;1.05;0.90;;;;;;;;;;5088316;28;20044;-55
2021/07/04 00:59:51;;;;;;;0.80;0.80;;;;;;;;;;5086694;28;20028;-54
2021/07/04 01:02:18;;;;;;;0.70;0.70;;;;;;;;;;5089133;28;20576;-54
2021/07/04 01:04:45;;;;;;;1.33;0.80;;;;;;;;;;5089352;28;20513;-55
2021/07/04 01:07:11;;;;;;;2.50;0.90;;;;;;;;;;5091595;28;20047;-55
2021/07/04 01:09:38;;;;;;;1.58;0.90;;;;;;;;;;5093177;28;20094;-55
2021/07/04 01:12:05;;;;;;;1.38;1.05;;;;;;;;;;5085014;28;20044;-55
2021/07/04 01:14:32;;;;;;;1.67;0.73;;;;;;;;;;5081106;28;20120;-55
2021/07/04 01:16:59;;;;;;;0.80;0.80;;;;;;;;;;5092983;28;20085;-55
2021/07/04 01:19:26;;;;;;;0.80;0.80;;;;;;;;;;5078964;28;20036;-55
2021/07/04 01:21:56;;;;;;;1.17;0.80;;;;;;;;;;5091338;28;20529;-54
2021/07/04 01:24:24;;;;;;;1.35;0.80;;;;;;;;;;5090334;28;20063;-55
2021/07/04 01:26:51;;;;;;;2.00;0.80;;;;;;;;;;5090701;28;20036;-54
2021/07/04 01:29:18;;;;;;;1.15;0.80;;;;;;;;;;5092057;28;20093;-55
2021/07/04 01:31:45;;;;;;;0.98;0.80;;;;;;;;;;5090757;28;20078;-55
2021/07/04 01:34:12;;;;;;;1.15;0.80;;;;;;;;;;5093253;28;20431;-55
2021/07/04 01:36:39;;;;;;;1.13;0.90;;;;;;;;;;5089811;28;20522;-55
2021/07/04 01:39:06;;;;;;;1.58;0.80;;;;;;;;;;5074538;28;20047;-55
2021/07/04 01:41:34;;;;;;;1.05;0.80;;;;;;;;;;5092301;28;20039;-54
2021/07/04 01:44:00;;;;;;;1.90;0.90;;;;;;;;;;5067107;28;20040;-56
2021/07/04 01:46:27;;;;;;;1.17;0.80;;;;;;;;;;5089731;28;20470;-55
2021/07/04 01:48:54;;;;;;;1.67;1.05;;;;;;;;;;5089865;28;20085;-54
2021/07/04 01:51:21;;;;;;;0.80;0.80;;;;;;;;;;5074931;28;20044;-55
2021/07/04 01:53:47;;;;;;;4.60;0.80;;;;;;;;;;5092761;28;20480;-55
2021/07/04 01:56:14;;;;;;;0.88;0.80;;;;;;;;;;5082739;28;20047;-55
2021/07/04 01:58:41;;;;;;;3.72;0.90;;;;;;;;;;5092990;28;20054;-55
2021/07/04 02:01:08;;;;;;;4.25;1.00;;;;;;;;;;5089139;28;20068;-55
2021/07/04 02:03:35;;;;;;;2.85;0.80;;;;;;;;;;5091501;28;20070;-55
2021/07/04 02:06:02;;;;;;;0.80;0.80;;;;;;;;;;5084760;28;20042;-55
2021/07/04 02:08:29;;;;;;;3.92;0.85;;;;;;;;;;5090695;28;20056;-55
2021/07/04 02:10:56;;;;;;;0.70;0.70;;;;;;;;;;5091588;28;20559;-55
2021/07/04 02:13:23;;;;;;;0.93;0.80;;;;;;;;;;5086174;28;20079;-54
2021/07/04 02:15:50;;;;;;;4.00;1.10;;;;;;;;;;5087799;28;20040;-54
2021/07/04 02:18:17;;;;;;;1.63;0.90;;;;;;;;;;5092031;28;20450;-55
2021/07/04 02:20:48;;;;;;;0.90;0.90;;;;;;;;;;5087998;28;20036;-55
2021/07/04 02:23:26;;;;;;;0.80;0.80;;;;;;;;;;5090733;28;20063;-55
2021/07/04 02:25:54;;;;;;;1.15;0.90;;;;;;;;;;5071843;28;20368;-55
2021/07/04 02:28:22;;;;;;;0.95;0.90;;;;;;;;;;5090627;28;20032;-55
2021/07/04 02:30:50;;;;;;;1.02;0.90;;;;;;;;;;5075669;28;20473;-54
2021/07/04 02:33:18;;;;;;;2.80;0.80;;;;;;;;;;5086623;28;20122;-54
2021/07/04 02:35:46;;;;;;;2.05;0.90;;;;;;;;;;5086271;28;20098;-55
2021/07/04 02:38:13;;;;;;;1.52;0.90;;;;;;;;;;5091991;28;20040;-54
2021/07/04 02:40:40;;;;;;;0.80;0.80;;;;;;;;;;5089324;28;20067;-55
2021/07/04 02:43:08;;;;;;;0.85;0.85;;;;;;;;;;5091117;28;20102;-54
2021/07/04 02:45:35;;;;;;;0.85;0.85;;;;;;;;;;5088971;28;20159;-54
2021/07/04 02:48:02;;;;;;;3.03;0.80;;;;;;;;;;5088221;28;20040;-55
2021/07/04 02:50:29;;;;;;;1.55;0.85;;;;;;;;;;5092506;28;20115;-55
2021/07/04 02:52:56;;;;;;;1.58;1.15;;;;;;;;;;5090263;28;20051;-53
2021/07/04 02:55:23;;;;;;;2.85;0.90;;;;;;;;;;5080027;28;20040;-55
2021/07/04 02:57:50;;;;;;;1.95;0.90;;;;;;;;;;5084689;28;20045;-54
2021/07/04 03:00:21;;;;;;;1.83;0.90;;;;;;;;;;5087041;28;20032;-55
2021/07/04 03:02:48;;;;;;;4.72;0.93;;;;;;;;;;5089964;28;20464;-55
2021/07/04 03:05:15;;;;;;;1.25;1.15;;;;;;;;;;5090222;28;20127;-54
2021/07/04 03:07:43;;;;;;;1.10;1.00;;;;;;;;;;5082646;28;20464;-54
2021/07/04 03:10:11;;;;;;;2.58;0.80;;;;;;;;;;5083590;28;20064;-54
2021/07/04 03:12:38;;;;;;;3.42;0.90;;;;;;;;;;5082848;28;20493;-54
2021/07/04 03:15:07;;;;;;;0.98;0.98;;;;;;;;;;5090289;28;20048;-54
2021/07/04 03:17:34;;;;;;;0.95;0.95;;;;;;;;;;5090244;28;20048;-54
2021/07/04 03:20:02;;;;;;;2.45;1.25;;;;;;;;;;5088342;28;20036;-55
2021/07/04 03:22:29;;;;;;;1.10;1.10;;;;;;;;;;5089512;28;20036;-54
2021/07/04 03:24:57;;;;;;;2.13;1.17;;;;;;;;;;5090223;28;20032;-54
2021/07/04 03:27:24;;;;;;;2.58;1.17;;;;;;;;;;5086843;28;20085;-54
2021/07/04 03:29:51;;;;;;;1.00;1.00;;;;;;;;;;5089504;28;20094;-55
2021/07/04 03:32:18;;;;;;;3.20;0.90;;;;;;;;;;5089688;28;20491;-54
2021/07/04 03:34:44;;;;;;;1.52;0.90;;;;;;;;;;5089895;28;20063;-54
2021/07/04 03:37:11;;;;;;;0.90;0.90;;;;;;;;;;5088807;28;20118;-53
2021/07/04 03:39:38;;;;;;;1.83;0.90;;;;;;;;;;5090310;28;20399;-53
2021/07/04 03:42:05;;;;;;;0.98;0.90;;;;;;;;;;5084002;28;20045;-54
2021/07/04 03:44:31;;;;;;;1.67;0.90;;;;;;;;;;5080414;28;20044;-54
2021/07/04 03:46:58;;;;;;;0.90;0.90;;;;;;;;;;5090656;28;20101;-54
2021/07/04 03:49:25;;;;;;;1.27;0.90;;;;;;;;;;5090084;28;20031;-54
2021/07/04 03:51:52;;;;;;;2.90;0.80;;;;;;;;;;5077143;28;20071;-54
2021/07/04 03:54:19;;;;;;;1.10;1.00;;;;;;;;;;5089249;28;20048;-55
2021/07/04 03:56:45;;;;;;;1.30;1.13;;;;;;;;;;5087787;28;20512;-55
2021/07/04 03:59:12;;;;;;;0.95;0.95;;;;;;;;;;5090968;28;20471;-53
2021/07/04 04:01:39;;;;;;;1.75;0.90;;;;;;;;;;5087751;28;20115;-54
2021/07/04 04:04:06;;;;;;;1.17;0.90;;;;;;;;;;5089406;28;20068;-54
2021/07/04 04:06:33;;;;;;;0.88;0.88;;;;;;;;;;5090564;28;20093;-54
2021/07/04 04:09:00;;;;;;;1.23;1.13;;;;;;;;;;5088568;28;20040;-54
2021/07/04 04:11:26;;;;;;;1.10;0.98;;;;;;;;;;5079465;28;20055;-54
2021/07/04 04:13:53;;;;;;;1.02;0.90;;;;;;;;;;5087772;28;20059;-54
2021/07/04 04:16:20;;;;;;;1.00;1.00;;;;;;;;;;5081543;28;20048;-54
2021/07/04 04:18:47;;;;;;;1.80;1.00;;;;;;;;;;5086400;28;20459;-54
2021/07/04 04:21:16;;;;;;;1.40;1.00;;;;;;;;;;5097963;28;20086;-55
2021/07/04 04:23:43;;;;;;;1.35;0.90;;;;;;;;;;5090095;28;20105;-54
2021/07/04 04:26:09;;;;;;;1.58;1.10;;;;;;;;;;5088293;28;20028;-54
2021/07/04 04:28:36;;;;;;;1.75;1.00;;;;;;;;;;5087615;28;20481;-54
2021/07/04 04:31:03;;;;;;;1.02;1.00;;;;;;;;;;5095388;28;20119;-54
2021/07/04 04:33:30;;;;;;;0.95;0.95;;;;;;;;;;5088419;28;20033;-55
2021/07/04 04:35:56;;;;;;;1.00;1.00;;;;;;;;;;5089528;28;20067;-53
2021/07/04 04:38:23;;;;;;;1.10;1.00;;;;;;;;;;5088729;28;20032;-54
2021/07/04 04:40:50;;;;;;;1.33;0.90;;;;;;;;;;5094982;28;20123;-54
2021/07/04 04:43:17;;;;;;;1.35;1.25;;;;;;;;;;5093918;28;20036;-54
2021/07/04 04:45:43;;;;;;;5.00;0.95;;;;;;;;;;5093882;28;20036;-54
2021/07/04 04:48:10;;;;;;;1.00;1.00;;;;;;;;;;5093141;28;20039;-53
2021/07/04 04:50:41;;;;;;;1.15;1.08;;;;;;;;;;5070799;28;20051;-54
2021/07/04 04:53:08;;;;;;;1.10;1.00;;;;;;;;;;5077605;28;20086;-55
2021/07/04 04:55:35;;;;;;;1.00;1.00;;;;;;;;;;5093309;28;20040;-55
2021/07/04 04:58:01;;;;;;;1.10;0.90;;;;;;;;;;5091404;28;20047;-55
2021/07/04 05:00:28;;;;;;;0.90;0.90;;;;;;;;;;5087022;28;20040;-54
2021/07/04 05:02:55;;;;;;;1.00;1.00;;;;;;;;;;5091940;28;20055;-54
2021/07/04 05:05:21;;;;;;;1.85;1.00;;;;;;;;;;5090167;28;20072;-54
2021/07/04 05:07:48;;;;;;;2.90;0.85;;;;;;;;;;5094830;28;20101;-54
2021/07/04 05:10:15;;;;;;;1.00;1.00;;;;;;;;;;5091829;28;20040;-55
2021/07/04 05:12:42;;;;;;;0.90;0.90;;;;;;;;;;5075075;28;20519;-55
2021/07/04 05:15:10;;;;;;;1.00;1.00;;;;;;;;;;5090769;28;20028;-54
2021/07/04 05:17:37;;;;;;;2.10;1.30;;;;;;;;;;5088582;28;20093;-54
2021/07/04 05:20:05;;;;;;;3.95;1.10;;;;;;;;;;5092689;28;20036;-54
2021/07/04 05:22:32;;;;;;;1.63;1.52;;;;;;;;;;5092462;28;20130;-55
2021/07/04 05:24:59;;;;;;;2.80;1.00;;;;;;;;;;5091557;28;20032;-54
2021/07/04 05:27:26;;;;;;;1.00;1.00;;;;;;;;;;5091296;28;20511;-54
2021/07/04 05:29:53;;;;;;;2.05;0.90;;;;;;;;;;5090538;28;20068;-55
2021/07/04 05:32:20;;;;;;;1.10;1.00;;;;;;;;;;5093650;28;20048;-54
2021/07/04 05:34:48;;;;;;;1.60;1.00;;;;;;;;;;5088414;28;20060;-54
2021/07/04 05:37:16;;;;;;;1.65;0.90;;;;;;;;;;5080338;28;20064;-54
2021/07/04 05:39:43;;;;;;;1.33;1.08;;;;;;;;;;5087043;28;20040;-54
2021/07/04 05:42:10;;;;;;;1.63;0.90;;;;;;;;;;5093034;28;20111;-55
2021/07/04 05:44:37;;;;;;;1.77;1.00;;;;;;;;;;5093459;28;20032;-54
2021/07/04 05:47:04;;;;;;;1.10;1.00;;;;;;;;;;5090259;28;20032;-54
2021/07/04 05:49:30;;;;;;;2.67;1.30;;;;;;;;;;5091361;28;20114;-54
2021/07/04 05:51:57;;;;;;;4.72;1.20;;;;;;;;;;5080151;28;20506;-54
2021/07/04 05:54:24;;;;;;;1.63;1.52;;;;;;;;;;5084224;28;20096;-55
2021/07/04 05:56:51;;;;;;;1.00;1.00;;;;;;;;;;5079427;28;20456;-54
2021/07/04 05:59:17;;;;;;;1.95;1.00;;;;;;;;;;5091731;28;20043;-54
2021/07/04 06:01:44;;;;;;;1.15;1.05;;;;;;;;;;5084238;28;20040;-54
2021/07/04 06:04:11;;;;;;;1.02;0.90;;;;;;;;;;5092566;28;20426;-54
2021/07/04 06:06:38;;;;;;;1.08;1.00;;;;;;;;;;5090687;28;20085;-55
2021/07/04 06:09:04;;;;;;;1.73;1.02;;;;;;;;;;5081964;28;20070;-55
2021/07/04 06:11:31;;;;;;;0.93;0.90;;;;;;;;;;5090190;28;20071;-55
2021/07/04 06:13:58;;;;;;;1.00;1.00;;;;;;;;;;5090005;28;20064;-54
2021/07/04 06:16:25;;;;;;;1.65;1.10;;;;;;;;;;5091291;28;20036;-55
2021/07/04 06:18:52;;;;;;;1.55;1.15;;;;;;;;;;5089744;28;20040;-54
2021/07/04 06:21:19;;;;;;;1.35;1.05;;;;;;;;;;5087166;28;20029;-55
2021/07/04 06:23:46;;;;;;;2.20;0.90;;;;;;;;;;5088235;28;20274;-54
2021/07/04 06:26:12;;;;;;;1.30;1.20;;;;;;;;;;5088748;28;20045;-55
2021/07/04 06:28:40;;;;;;;2.28;1.00;;;;;;;;;;5092167;28;20071;-54
2021/07/04 06:31:07;;;;;;;6.20;1.42;;;;;;;;;;5088901;28;20040;-54
2021/07/04 06:33:34;;;;;;;1.70;1.20;;;;;;;;;;5082130;28;20028;-54
2021/07/04 06:36:01;;;;;;;1.33;1.20;;;;;;;;;;5089185;28;20033;-55
2021/07/04 06:38:27;;;;;;;2.25;1.20;;;;;;;;;;5089118;28;20123;-55
2021/07/04 06:40:54;;;;;;;1.73;1.10;;;;;;;;;;5104028;28;20040;-55
2021/07/04 06:43:21;;;;;;;5.07;4.70;;;;;;;;;;5091397;28;20139;-48
2021/07/04 06:45:48;;;;;;;1.02;1.00;;;;;;;;;;5090785;28;20044;-47
2021/07/04 06:48:15;;;;;;;1.15;0.80;;;;;;;;;;5083836;28;20035;-46
2021/07/04 06:50:42;;;;;;;0.90;0.90;;;;;;;;;;5089863;28;20031;-48
2021/07/04 06:53:09;;;;;;;1.35;0.80;;;;;;;;;;5073512;28;20520;-48
2021/07/04 06:55:36;;;;;;;2.25;0.85;;;;;;;;;;5089180;28;20044;-47
2021/07/04 06:58:03;;;;;;;1.50;0.80;;;;;;;;;;5089099;28;20044;-47
2021/07/04 07:00:29;;;;;;;0.82;0.80;;;;;;;;;;5080220;28;20388;-46
2021/07/04 07:02:56;;;;;;;1.55;1.45;;;;;;;;;;5087385;28;20032;-49
2021/07/04 07:05:23;;;;;;;1.35;0.70;;;;;;;;;;5068395;28;20523;-49
2021/07/04 07:07:50;;;;;;;0.88;0.70;;;;;;;;;;5088729;28;20079;-51
2021/07/04 07:10:17;;;;;;;0.70;0.70;;;;;;;;;;5088575;28;20044;-47
2021/07/04 07:12:44;;;;;;;0.75;0.75;;;;;;;;;;5091224;28;20090;-49
2021/07/04 07:15:12;;;;;;;1.42;0.65;;;;;;;;;;5089019;28;20097;-48
2021/07/04 07:17:39;;;;;;;2.30;0.70;;;;;;;;;;5089765;28;20507;-47
2021/07/04 07:20:07;;;;;;;0.63;0.60;;;;;;;;;;5088798;28;20093;-47
2021/07/04 07:22:34;;;;;;;1.73;0.70;;;;;;;;;;5088577;28;20069;-46
2021/07/04 07:25:02;;;;;;;1.17;0.60;;;;;;;;;;5089211;28;20400;-50
2021/07/04 07:27:29;;;;;;;1.00;0.60;;;;;;;;;;5089100;28;20032;-48
2021/07/04 07:29:55;;;;;;;2.60;0.70;;;;;;;;;;5104691;28;20036;-52
2021/07/04 07:32:22;;;;;;;0.70;0.60;;;;;;;;;;5090927;28;20051;-48
2021/07/04 07:34:49;;;;;;;2.60;1.05;;;;;;;;;;5088112;28;20129;-47
2021/07/04 07:37:15;;;;;;;0.65;0.60;;;;;;;;;;5089872;28;20044;-50
2021/07/04 07:39:42;;;;;;;3.13;0.60;;;;;;;;;;5089999;28;20052;-47
2021/07/04 07:42:09;;;;;;;1.65;0.60;;;;;;;;;;5104666;28;20040;-46
2021/07/04 07:44:36;;;;;;;0.85;0.60;;;;;;;;;;5089744;28;20036;-49
2021/07/04 07:47:03;;;;;;;2.65;0.60;;;;;;;;;;5087129;28;20028;-46
2021/07/04 07:49:30;;;;;;;2.63;0.60;;;;;;;;;;5090407;28;20033;-46
2021/07/04 07:51:59;;;;;;;1.17;0.60;;;;;;;;;;5088860;28;20036;-48
2021/07/04 07:54:26;;;;;;;1.52;0.55;;;;;;;;;;5088499;28;20028;-49
2021/07/04 07:56:53;;;;;;;0.73;0.50;;;;;;;;;;5080075;28;20131;-48
2021/07/04 07:59:20;;;;;;;2.15;0.50;;;;;;;;;;5081626;28;20036;-49
2021/07/04 08:01:47;;;;;;;0.95;0.50;;;;;;;;;;5089153;28;20028;-50
2021/07/04 08:04:14;;;;;;;1.63;0.50;;;;;;;;;;5087221;28;20028;-48
2021/07/04 08:06:41;;;;;;;3.35;0.50;;;;;;;;;;5077408;28;20115;-50
2021/07/04 08:09:08;;;;;;;7.38;0.50;;;;;;;;;;5078972;28;20051;-48
2021/07/04 08:11:34;;;;;;;0.50;0.50;;;;;;;;;;5083755;28;20047;-48
2021/07/04 08:14:01;;;;;;;1.45;0.40;;;;;;;;;;5083518;28;21902;-49
2021/07/04 08:16:28;;;;;;;0.77;0.50;;;;;;;;;;5093605;28;20040;-49
2021/07/04 08:18:55;;;;;;;0.43;0.43;;;;;;;;;;5092109;28;20040;-48
2021/07/04 08:21:22;;;;;;;1.17;0.47;;;;;;;;;;5087014;28;20040;-47
2021/07/04 08:23:49;;;;;;;1.02;0.40;;;;;;;;;;5066678;28;20399;-48
2021/07/04 08:26:17;;;;;;;0.70;0.43;;;;;;;;;;5093587;28;20052;-46
2021/07/04 08:28:43;;;;;;;0.60;0.45;;;;;;;;;;5088462;28;20040;-50
2021/07/04 08:31:10;;;;;;;0.60;0.40;;;;;;;;;;5083296;28;20538;-50
2021/07/04 08:33:37;;;;;;;0.57;0.40;;;;;;;;;;5087930;28;20028;-49
2021/07/04 08:36:04;;;;;;;2.17;0.50;;;;;;;;;;5095926;28;20089;-47
2021/07/04 08:38:30;;;;;;;0.68;0.68;;;;;;;;;;5082626;28;20044;-50
2021/07/04 08:40:58;;;;;;;1.95;0.47;;;;;;;;;;5086745;28;20044;-50
2021/07/04 08:43:25;;;;;;;1.33;0.45;;;;;;;;;;5083208;28;20421;-49
2021/07/04 08:45:52;;;;;;;0.80;0.50;;;;;;;;;;5108730;28;20078;-47
2021/07/04 08:48:19;;;;;;;0.80;0.40;;;;;;;;;;5094261;28;20062;-47
2021/07/04 08:50:46;;;;;;;2.10;0.40;;;;;;;;;;5083020;28;20072;-48
2021/07/04 08:53:12;;;;;;;0.50;0.50;;;;;;;;;;5091707;28;20127;-51
2021/07/04 08:55:41;;;;;;;1.38;0.57;;;;;;;;;;5089158;28;20048;-51
2021/07/04 08:58:08;;;;;;;0.50;0.50;;;;;;;;;;5093844;28;20070;-50
2021/07/04 09:00:34;;;;;;;0.40;0.40;;;;;;;;;;5092980;28;20063;-51
2021/07/04 09:03:21;;;;;;;2.22;0.80;;;;;;;;;;5091371;28;20039;-51
2021/07/04 09:05:48;;;;;;;1.42;0.40;;;;;;;;;;5085786;28;20064;-51
2021/07/04 09:08:20;;;;;;;0.98;0.50;;;;;;;;;;5091225;28;20036;-51
2021/07/04 09:11:06;;;;;;;1.05;0.40;;;;;;;;;;5076044;28;20040;-51
2021/07/04 09:13:32;;;;;;;0.40;0.40;;;;;;;;;;5093434;28;20036;-51
2021/07/04 09:16:08;;;;;;;0.68;0.40;;;;;;;;;;5092017;28;20483;-50
2021/07/04 09:18:35;;;;;;;1.25;0.40;;;;;;;;;;5085181;28;20036;-50
2021/07/04 09:21:23;;;;;;;1.45;0.30;;;;;;;;;;5090055;28;20543;-50
2021/07/04 09:23:50;;;;;;;1.17;0.40;;;;;;;;;;5081819;28;20032;-50
2021/07/04 09:26:37;;;;;;;3.08;0.40;;;;;;;;;;5090105;28;20125;-50
2021/07/04 09:29:04;;;;;;;1.38;0.50;;;;;;;;;;5073131;28;20036;-51
2021/07/04 09:31:31;;;;;;;1.85;0.40;;;;;;;;;;5088328;28;20866;-48
2021/07/04 09:34:09;;;;;;;0.40;0.40;;;;;;;;;;5084220;28;20052;-51
2021/07/04 09:36:36;;;;;;;1.30;0.32;;;;;;;;;;5096924;28;20039;-51
2021/07/04 09:39:16;;;;;;;0.40;0.40;;;;;;;;;;5077347;28;20051;-50
2021/07/04 09:42:02;;;;;;;0.30;0.30;;;;;;;;;;5087805;28;20052;-50
2021/07/04 09:44:29;;;;;;;0.60;0.30;;;;;;;;;;5083046;28;20586;-50
2021/07/04 09:47:14;;;;;;;0.30;0.30;;;;;;;;;;5092104;28;20085;-51
2021/07/04 09:49:42;;;;;;;1.48;0.43;;;;;;;;;;5088771;28;20109;-49
2021/07/04 09:52:20;;;;;;;1.92;0.40;;;;;;;;;;5076945;28;20120;-51
2021/07/04 09:54:57;;;;;;;0.50;0.40;;;;;;;;;;5092927;28;20044;-49
2021/07/04 09:57:24;;;;;;;1.10;0.30;;;;;;;;;;5091127;28;20032;-50
2021/07/04 10:00:10;;;;;;;0.70;0.40;;;;;;;;;;5076846;28;20040;-50
2021/07/04 10:02:37;;;;;;;1.58;0.30;;;;;;;;;;5092513;28;20554;-50
2021/07/04 10:05:15;;;;;;;0.30;0.30;;;;;;;;;;5088865;28;20085;-51
2021/07/04 10:07:42;;;;;;;2.17;0.30;;;;;;;;;;5092317;28;20032;-51
2021/07/04 10:10:10;;;;;;;0.55;0.40;;;;;;;;;;5093081;28;20372;-50
2021/07/04 10:12:38;;;;;;;1.20;0.30;;;;;;;;;;5089237;28;20119;-50
2021/07/04 10:15:05;;;;;;;1.02;0.30;;;;;;;;;;5098355;28;20434;-50
2021/07/04 10:17:32;;;;;;;1.85;0.35;;;;;;;;;;5087575;28;20050;-51
2021/07/04 10:19:59;;;;;;;1.23;0.30;;;;;;;;;;5084551;28;20071;-51
2021/07/04 10:22:26;;;;;;;0.35;0.35;;;;;;;;;;5091205;28;20115;-51
2021/07/04 10:24:53;;;;;;;3.30;0.40;;;;;;;;;;5087640;28;20085;-51
2021/07/04 10:27:20;;;;;;;5.05;0.30;;;;;;;;;;5091143;28;20040;-51
2021/07/04 10:29:49;;;;;;;0.40;0.30;;;;;;;;;;5091660;28;20059;-49
2021/07/04 10:32:16;;;;;;;0.80;0.80;;;;;;;;;;5080251;28;20032;-52
2021/07/04 10:34:44;;;;;;;0.40;0.30;;;;;;;;;;5086960;28;20052;-52
2021/07/04 10:37:11;;;;;;;0.88;0.40;;;;;;;;;;5080898;28;20035;-49
2021/07/04 10:39:37;;;;;;;0.30;0.30;;;;;;;;;;5091205;28;20048;-48
2021/07/04 10:42:04;;;;;;;1.52;0.30;;;;;;;;;;5095543;28;20088;-59
2021/07/04 10:44:47;;;;;;;0.40;0.40;;;;;;;;;;5088038;28;20051;-59
2021/07/04 10:47:24;;;;;;;0.35;0.35;;;;;;;;;;5089662;28;20036;-58
2021/07/04 10:49:56;;;;;;;0.35;0.35;;;;;;;;;;5082552;28;20051;-58
2021/07/04 10:52:23;;;;;;;0.20;0.20;;;;;;;;;;5086431;28;20037;-58
2021/07/04 10:54:51;;;;;;;1.33;0.38;;;;;;;;;;5087606;28;20071;-58
2021/07/04 10:57:25;;;;;;;0.55;0.30;;;;;;;;;;5071970;28;20114;-58
2021/07/04 11:00:01;;;;;;;0.32;0.30;;;;;;;;;;5090366;28;20476;-58
2021/07/04 11:02:40;;;;;;;0.40;0.30;;;;;;;;;;5087945;28;20093;-58
2021/07/04 11:05:11;;;;;;;0.30;0.30;;;;;;;;;;5088947;28;20036;-58
2021/07/04 11:07:53;;;;;;;0.32;0.32;;;;;;;;;;5080595;28;20032;-58
2021/07/04 11:10:22;;;;;;;0.45;0.30;;;;;;;;;;5083938;28;20183;-57
2021/07/04 11:12:50;;;;;;;1.13;0.30;;;;;;;;;;5081269;28;20467;-59
2021/07/04 11:15:17;;;;;;;0.30;0.30;;;;;;;;;;5091760;28;20040;-58
2021/07/04 11:18:00;;;;;;;1.00;0.30;;;;;;;;;;5088761;28;20119;-58
2021/07/04 11:20:28;;;;;;;0.60;0.40;;;;;;;;;;5079454;28;20064;-58
2021/07/04 11:22:55;;;;;;;0.30;0.30;;;;;;;;;;5088590;28;20616;-59
2021/07/04 11:25:22;;;;;;;0.70;0.30;;;;;;;;;;5085146;28;20128;-58
2021/07/04 11:28:08;;;;;;;0.80;0.35;;;;;;;;;;5091241;28;20028;-57
2021/07/04 11:30:35;;;;;;;0.50;0.50;;;;;;;;;;5089010;28;20071;-57
2021/07/04 11:33:30;;;;;;;1.58;0.30;;;;;;;;;;5089211;28;20097;-57
2021/07/04 11:36:02;;;;;;;0.38;0.30;;;;;;;;;;5077427;28;20098;-58
2021/07/04 11:38:29;;;;;;;;;;;;;;;;;;5084589;28;20093;-57
2021/07/04 11:40:56;;;;;;;1.60;0.30;;;;;;;;;;5094670;28;19962;-58
2021/07/04 11:43:24;;;;;;;0.30;0.30;;;;;;;;;;5088393;28;20062;-58
2021/07/04 11:45:53;;;;;;;0.30;0.30;;;;;;;;;;5071664;28;20415;-59
2021/07/04 11:48:21;;;;;;;0.60;0.30;;;;;;;;;;5089897;28;20376;-59
2021/07/04 11:50:48;;;;;;;0.38;0.30;;;;;;;;;;5089530;28;20138;-58
2021/07/04 11:53:15;;;;;;;0.40;0.40;;;;;;;;;;5085693;28;20055;-58
2021/07/04 11:55:55;;;;;;;0.68;0.30;;;;;;;;;;5089597;28;20040;-58
2021/07/04 11:58:26;;;;;;;1.65;0.40;;;;;;;;;;5089587;28;20066;-58
2021/07/04 12:00:52;;;;;;;1.25;0.40;;;;;;;;;;5076600;28;20442;-59
2021/07/04 12:03:21;;;;;;;1.65;0.30;;;;;;;;;;5087624;28;20079;-58
2021/07/04 12:05:48;;;;;;;1.92;0.40;;;;;;;;;;5085278;28;20040;-58
2021/07/04 12:08:15;;;;;;;0.30;0.30;;;;;;;;;;5088355;28;20127;-58
2021/07/04 12:10:51;;;;;;;0.30;0.30;;;;;;;;;;5087625;28;20465;-58
2021/07/04 12:13:18;;;;;;;0.82;0.40;;;;;;;;;;5071565;28;20054;-58
2021/07/04 12:15:49;;;;;;;0.80;0.30;;;;;;;;;;5083779;28;20049;-58
2021/07/04 12:18:18;;;;;;;0.45;0.40;;;;;;;;;;5081944;28;20450;-58
2021/07/04 12:20:53;;;;;;;1.38;0.40;;;;;;;;;;5082542;28;20101;-58
2021/07/04 12:23:20;;;;;;;2.17;0.30;;;;;;;;;;5089691;28;20068;-58
2021/07/04 12:25:47;;;;;;;2.15;0.22;;;;;;;;;;5089699;28;20036;-59
2021/07/04 12:28:15;;;;;;;2.70;1.05;;;;;;;;;;5089336;28;20119;-58
2021/07/04 12:30:49;;;;;;;0.30;0.30;;;;;;;;;;5086687;28;20040;-58
2021/07/04 12:33:17;;;;;;;0.30;0.30;;;;;;;;;;5089514;28;20056;-58
2021/07/04 12:35:54;;;;;;;0.38;0.38;;;;;;;;;;5087690;28;20060;-58
2021/07/04 12:38:29;;;;;;;0.63;0.30;;;;;;;;;;5078866;28;20071;-58
2021/07/04 12:41:04;;;;;;;0.30;0.30;;;;;;;;;;5096689;28;20114;-58
2021/07/04 12:43:33;;;;;;;0.30;0.30;;;;;;;;;;5087839;28;20041;-58
2021/07/04 12:46:01;;;;;;;0.30;0.30;;;;;;;;;;5085892;28;21540;-57
2021/07/04 12:48:30;;;;;;;0.95;0.32;;;;;;;;;;5089217;28;20125;-58
2021/07/04 12:50:58;;;;;;;0.30;0.30;;;;;;;;;;5083035;28;20027;-58
2021/07/04 12:53:32;;;;;;;1.83;0.30;;;;;;;;;;5089435;28;20380;-58
2021/07/04 12:55:59;;;;;;;1.33;0.30;;;;;;;;;;5088558;28;20062;-58
2021/07/04 12:58:28;;;;;;;0.30;0.30;;;;;;;;;;5087247;28;20111;-58
2021/07/04 13:01:15;;;;;;;1.23;0.40;;;;;;;;;;5092955;28;20072;-58
2021/07/04 13:03:49;;;;;;;0.93;0.40;;;;;;;;;;5088972;28;20040;-57
2021/07/04 13:06:35;;;;;;;1.15;0.28;;;;;;;;;;5083461;28;20064;-57
2021/07/04 13:09:21;;;;;;;0.30;0.30;;;;;;;;;;5088865;28;20083;-58
2021/07/04 13:11:58;;;;;;;1.95;0.40;;;;;;;;;;5088899;28;20036;-57
2021/07/04 13:14:39;;;;;;;1.45;0.30;;;;;;;;;;5072394;28;20051;-58
2021/07/04 13:17:07;;;;;;;0.55;0.40;;;;;;;;;;5074932;28;20076;-58
2021/07/04 13:19:39;;;;;;;1.63;0.40;;;;;;;;;;5086578;28;20139;-58
2021/07/04 13:22:31;;;;;;;0.30;0.30;;;;;;;;;;5088911;28;20083;-59
2021/07/04 13:24:58;;;;;;;;;;;;;;;;;;5094146;28;20032;-58
2021/07/04 13:27:31;;;;;;;0.30;0.30;;;;;;;;;;5100027;28;19974;-58
2021/07/04 13:30:06;;;;;;;1.40;0.40;;;;;;;;;;5089717;28;20040;-58
2021/07/04 13:32:51;;;;;;;0.82;0.40;;;;;;;;;;5089286;28;20063;-58
2021/07/04 13:35:18;;;;;;;0.30;0.30;;;;;;;;;;5092476;28;20059;-58
2021/07/04 13:37:52;;;;;;;0.30;0.30;;;;;;;;;;5081149;28;20127;-59
2021/07/04 13:40:19;;;;;;;0.70;0.30;;;;;;;;;;5073620;28;20055;-57
2021/07/04 13:42:47;;;;;;;0.57;0.30;;;;;;;;;;5089993;28;20044;-58
2021/07/04 13:45:32;;;;;;;1.50;0.40;;;;;;;;;;5090884;28;20059;-58
2021/07/04 13:48:09;;;;;;;0.57;0.43;;;;;;;;;;5090416;28;20109;-58
2021/07/04 13:50:37;;;;;;;2.38;0.70;;;;;;;;;;5073025;28;20064;-58
2021/07/04 13:53:05;;;;;;;0.30;0.30;;;;;;;;;;5086126;28;20056;-59
2021/07/04 13:55:32;;;;;;;1.02;0.40;;;;;;;;;;5076940;28;20115;-57
2021/07/04 13:57:58;;;;;;;0.40;0.40;;;;;;;;;;5093003;28;20048;-57
2021/07/04 14:00:25;;;;;;;1.63;0.40;;;;;;;;;;5086708;28;20069;-58
2021/07/04 14:02:52;;;;;;;0.65;0.40;;;;;;;;;;5089039;28;20044;-57
2021/07/04 14:05:19;;;;;;;1.20;0.40;;;;;;;;;;5091213;28;20083;-58
2021/07/04 14:07:46;;;;;;;0.50;0.40;;;;;;;;;;5091623;28;20094;-57
2021/07/04 14:10:12;;;;;;;0.50;0.35;;;;;;;;;;5094180;28;20092;-57
2021/07/04 14:12:40;;;;;;;0.82;0.40;;;;;;;;;;5088478;28;20101;-57
2021/07/04 14:15:07;;;;;;;2.30;0.40;;;;;;;;;;5091337;28;20044;-57
2021/07/04 14:17:34;;;;;;;2.63;0.40;;;;;;;;;;5065598;28;20680;-57
2021/07/04 14:20:02;;;;;;;1.67;0.40;;;;;;;;;;5085436;28;20369;-57
2021/07/04 14:22:28;;;;;;;5.07;0.50;;;;;;;;;;5088043;28;20126;-56
2021/07/04 14:24:58;;;;;;;2.47;0.60;;;;;;;;;;5085910;28;20034;-57
2021/07/04 14:27:25;;;;;;;0.50;0.50;;;;;;;;;;5094375;28;20082;-58
2021/07/04 14:29:51;;;;;;;0.50;0.50;;;;;;;;;;5087580;28;20123;-57
2021/07/04 14:32:18;;;;;;;0.40;0.40;;;;;;;;;;5089762;28;20036;-58
2021/07/04 14:34:47;;;;;;;0.40;0.40;;;;;;;;;;5088891;28;20139;-57
2021/07/04 14:37:14;;;;;;;0.40;0.40;;;;;;;;;;5085365;28;20421;-57
2021/07/04 14:39:41;;;;;;;0.50;0.50;;;;;;;;;;5085748;28;20972;-57
2021/07/04 14:42:08;;;;;;;0.40;0.40;;;;;;;;;;5084175;28;20047;-57
2021/07/04 14:44:35;;;;;;;1.55;0.85;;;;;;;;;;5087405;28;20066;-57
2021/07/04 14:47:01;;;;;;;1.30;0.52;;;;;;;;;;5088929;28;20032;-56
2021/07/04 14:49:32;;;;;;;1.20;0.40;;;;;;;;;;5089817;28;20164;-57
2021/07/04 14:51:59;;;;;;;0.52;0.50;;;;;;;;;;5087731;28;20043;-57